createdAt,value
2022-10-03T00:00:02.121Z,102524.28
2022-10-03T00:03:19.175Z,102529.81
2022-10-03T00:06:03.129Z,102533.38
2022-10-03T00:09:06.308Z,102544.66
2022-10-03T00:11:45.875Z,102538.00
2022-10-03T00:14:29.928Z,102542.63
2022-10-03T00:17:09.410Z,102541.81
2022-10-03T00:19:53.054Z,102539.41
2022-10-03T00:22:36.329Z,102544.94
2022-10-03T00:25:23.932Z,102546.88
2022-10-03T00:28:11.119Z,102544.31
2022-10-03T00:30:58.863Z,102551.44
2022-10-03T00:33:39.769Z,102556.06
2022-10-03T00:36:20.837Z,102552.06
2022-10-03T00:39:27.907Z,102559.97
2022-10-03T00:42:36.048Z,102562.22
2022-10-03T00:45:49.675Z,102563.44
2022-10-03T00:49:02.433Z,102566.81
2022-10-03T00:51:49.785Z,102577.88
2022-10-03T00:54:39.489Z,102573.06
2022-10-03T00:57:38.692Z,102578.94
2022-10-03T01:00:19.167Z,102579.16
2022-10-03T01:03:09.642Z,102579.16
2022-10-03T01:05:59.045Z,102571.94
2022-10-03T01:08:56.144Z,102583.75
2022-10-03T01:11:41.168Z,102580.56
2022-10-03T01:14:27.912Z,102576.66
2022-10-03T01:17:12.619Z,102578.16
2022-10-03T01:20:20.584Z,102575.78
2022-10-03T01:23:15.813Z,102592.66
2022-10-03T01:25:53.390Z,102585.44
2022-10-03T01:29:07.391Z,102583.38
2022-10-03T01:31:44.693Z,102580.72
2022-10-03T01:34:26.633Z,102587.28
2022-10-03T01:37:08.742Z,102583.66
2022-10-03T01:39:51.841Z,102588.38
2022-10-03T01:42:39.839Z,102583.97
2022-10-03T01:45:26.102Z,102587.28
2022-10-03T01:48:03.541Z,102579.19
2022-10-03T01:50:39.957Z,102582.28
2022-10-03T01:53:15.965Z,102590.22
2022-10-03T01:55:59.835Z,102587.81
2022-10-03T01:58:49.161Z,102587.09
2022-10-03T02:01:30.081Z,102577.47
2022-10-03T02:04:16.442Z,102593.75
2022-10-03T02:06:56.037Z,102590.56
2022-10-03T02:09:33.865Z,102594.81
2022-10-03T02:12:10.796Z,102587.69
2022-10-03T02:14:53.306Z,102589.28
2022-10-03T02:17:45.363Z,102585.28
2022-10-03T02:20:27.496Z,102581.72
2022-10-03T02:23:01.094Z,102588.75
2022-10-03T02:25:52.965Z,102585.09
2022-10-03T02:28:56.287Z,102577.97
2022-10-03T02:31:51.160Z,102574.06
2022-10-03T02:34:43.153Z,102571.34
2022-10-03T02:37:49.182Z,102577.56
2022-10-03T02:40:55.763Z,102586.75
2022-10-03T02:44:21.289Z,102578.91
2022-10-03T02:47:43.703Z,102587.63
2022-10-03T02:50:59.257Z,102597.78
2022-10-03T02:54:25.098Z,102582.72
2022-10-03T02:57:23.504Z,102589.28
2022-10-03T03:00:09.394Z,102590.41
2022-10-03T03:03:22.310Z,102591.13
2022-10-03T03:06:30.974Z,102589.88
2022-10-03T03:09:27.185Z,102596.19
2022-10-03T03:12:43.495Z,102596.19
2022-10-03T03:15:55.867Z,102595.41
2022-10-03T03:18:36.024Z,102598.28
2022-10-03T03:21:25.984Z,102598.88
2022-10-03T03:24:23.425Z,102599.69
2022-10-03T03:27:14.336Z,102605.88
2022-10-03T03:29:53.351Z,102601.50
2022-10-03T03:32:37.930Z,102599.09
2022-10-03T03:35:22.277Z,102607.25
2022-10-03T03:38:14.196Z,102608.41
2022-10-03T03:40:57.543Z,102601.63
2022-10-03T03:43:45.400Z,102604.50
2022-10-03T03:46:29.918Z,102605.63
2022-10-03T03:49:34.459Z,102596.00
2022-10-03T03:52:22.502Z,102584.19
2022-10-03T03:55:18.519Z,102592.13
2022-10-03T03:58:17.835Z,102596.00
2022-10-03T04:01:08.398Z,102599.22
2022-10-03T04:03:54.708Z,102598.09
2022-10-03T04:06:38.355Z,102604.03
2022-10-03T04:09:26.654Z,102597.63
2022-10-03T04:12:10.565Z,102600.63
2022-10-03T04:15:08.840Z,102604.06
2022-10-03T04:18:28.606Z,102598.09
2022-10-03T04:21:18.750Z,102605.09
2022-10-03T04:24:09.444Z,102603.59
2022-10-03T04:26:59.617Z,102608.28
2022-10-03T04:29:48.024Z,102613.00
2022-10-03T04:32:42.924Z,102610.97
2022-10-03T04:35:39.257Z,102617.44
2022-10-03T04:38:21.278Z,102618.06
2022-10-03T04:41:00.863Z,102626.06
2022-10-03T04:43:43.856Z,102626.88
2022-10-03T04:46:27.140Z,102613.22
2022-10-03T04:49:06.947Z,102615.50
2022-10-03T04:51:55.381Z,102614.34
2022-10-03T04:54:43.482Z,102613.09
2022-10-03T04:57:24.867Z,102616.56
2022-10-03T05:00:09.025Z,102617.00
2022-10-03T05:02:56.504Z,102614.47
2022-10-03T05:05:41.854Z,102613.31
2022-10-03T05:08:24.123Z,102610.13
2022-10-03T05:11:11.042Z,102612.50
2022-10-03T05:14:00.191Z,102605.41
2022-10-03T05:16:41.188Z,102610.47
2022-10-03T05:19:53.851Z,102614.03
2022-10-03T05:22:40.410Z,102611.63
2022-10-03T05:25:23.504Z,102615.63
2022-10-03T05:28:05.736Z,102608.06
2022-10-03T05:30:45.464Z,102611.03
2022-10-03T05:33:28.467Z,102620.53
2022-10-03T05:36:16.499Z,102625.59
2022-10-03T05:39:31.957Z,102622.50
2022-10-03T05:42:23.817Z,102623.66
2022-10-03T05:45:04.319Z,102623.31
2022-10-03T05:47:50.557Z,102623.44
2022-10-03T05:50:58.029Z,102623.75
2022-10-03T05:53:57.394Z,102632.00
2022-10-03T05:56:50.052Z,102622.63
2022-10-03T05:59:43.225Z,102629.03
2022-10-03T06:02:46.133Z,102619.53
2022-10-03T06:05:33.829Z,102631.78
2022-10-03T06:08:49.240Z,102629.03
2022-10-03T06:11:47.308Z,102633.53
2022-10-03T06:14:47.804Z,102639.38
2022-10-03T06:17:49.158Z,102637.09
2022-10-03T06:20:56.009Z,102630.78
2022-10-03T06:23:48.511Z,102629.16
2022-10-03T06:27:02.385Z,102633.97
2022-10-03T06:30:05.537Z,102641.91
2022-10-03T06:33:13.877Z,102645.81
2022-10-03T06:36:09.947Z,102642.06
2022-10-03T06:39:30.344Z,102651.56
2022-10-03T06:42:23.464Z,102646.28
2022-10-03T06:45:36.505Z,102650.19
2022-10-03T06:48:26.139Z,102648.59
2022-10-03T06:51:27.185Z,102654.22
2022-10-03T06:54:37.658Z,102652.72
2022-10-03T06:57:25.975Z,102650.19
2022-10-03T07:00:10.910Z,102659.72
2022-10-03T07:03:15.181Z,102670.63
2022-10-03T07:06:15.505Z,102670.16
2022-10-03T07:09:22.019Z,102671.91
2022-10-03T07:12:19.883Z,102677.50
2022-10-03T07:16:05.071Z,102679.59
2022-10-03T07:19:05.516Z,102681.88
2022-10-03T07:22:19.123Z,102677.63
2022-10-03T07:25:26.702Z,102680.50
2022-10-03T07:28:18.055Z,102673.81
2022-10-03T07:31:04.163Z,102682.81
2022-10-03T07:34:10.639Z,102677.28
2022-10-03T07:37:15.839Z,102681.38
2022-10-03T07:40:27.406Z,102669.69
2022-10-03T07:43:43.339Z,102677.38
2022-10-03T07:46:50.881Z,102680.56
2022-10-03T07:49:41.351Z,102685.22
2022-10-03T07:52:38.103Z,102680.72
2022-10-03T07:55:32.255Z,102689.88
2022-10-03T07:58:27.052Z,102687.94
2022-10-03T08:01:18.209Z,102702.56
2022-10-03T08:04:14.983Z,102703.38
2022-10-03T08:10:00.661Z,102702.28
2022-10-03T08:13:03.791Z,102707.97
2022-10-03T08:15:56.040Z,102715.09
2022-10-03T08:18:58.551Z,102706.81
2022-10-03T08:21:45.099Z,102709.31
2022-10-03T08:24:53.852Z,102714.91
2022-10-03T08:28:02.169Z,102715.00
2022-10-03T08:30:53.202Z,102727.66
2022-10-03T08:33:42.972Z,102726.06
2022-10-03T08:36:43.022Z,102721.41
2022-10-03T08:39:31.441Z,102725.31
2022-10-03T08:42:27.962Z,102714.16
2022-10-03T08:45:42.203Z,102720.16
2022-10-03T08:48:49.665Z,102715.91
2022-10-03T08:51:57.110Z,102717.56
2022-10-03T08:54:50.886Z,102711.69
2022-10-03T08:57:39.259Z,102714.88
2022-10-03T09:00:17.198Z,102709.78
2022-10-03T09:03:35.917Z,102709.34
2022-10-03T09:07:16.077Z,102711.09
2022-10-03T09:10:20.745Z,102711.25
2022-10-03T09:13:38.179Z,102707.31
2022-10-03T09:16:41.226Z,102713.09
2022-10-03T09:19:29.001Z,102713.09
2022-10-03T09:22:14.981Z,102712.28
2022-10-03T09:25:22.500Z,102706.31
2022-10-03T09:28:27.313Z,102701.28
2022-10-03T09:31:12.923Z,102709.97
2022-10-03T09:34:22.711Z,102707.56
2022-10-03T09:37:31.278Z,102706.72
2022-10-03T09:40:39.576Z,102704.78
2022-10-03T09:43:49.381Z,102711.13
2022-10-03T09:47:12.188Z,102705.13
2022-10-03T09:50:29.760Z,102699.91
2022-10-03T09:53:32.577Z,102707.47
2022-10-03T09:56:51.919Z,102696.41
2022-10-03T09:59:53.318Z,102697.19
2022-10-03T10:02:55.870Z,102704.09
2022-10-03T10:06:02.199Z,102700.91
2022-10-03T10:08:54.224Z,102697.69
2022-10-03T10:11:54.032Z,102701.63
2022-10-03T10:14:44.782Z,102698.47
2022-10-03T10:17:56.752Z,102702.03
2022-10-03T10:21:08.830Z,102697.31
2022-10-03T10:23:53.641Z,102694.19
2022-10-03T10:26:59.385Z,102696.09
2022-10-03T10:30:05.846Z,102704.09
2022-10-03T10:33:09.697Z,102699.78
2022-10-03T10:36:00.681Z,102702.13
2022-10-03T10:38:49.283Z,102705.69
2022-10-03T10:41:56.588Z,102696.59
2022-10-03T10:44:55.387Z,102700.06
2022-10-03T10:48:09.702Z,102700.91
2022-10-03T10:51:23.367Z,102701.34
2022-10-03T10:54:31.947Z,102705.44
2022-10-03T10:57:18.160Z,102700.34
2022-10-03T11:00:21.816Z,102705.88
2022-10-03T11:03:12.977Z,102700.22
2022-10-03T11:06:24.027Z,102710.66
2022-10-03T11:09:36.524Z,102708.03
2022-10-03T11:12:56.737Z,102707.75
2022-10-03T11:15:59.617Z,102708.94
2022-10-03T11:19:11.019Z,102706.88
2022-10-03T11:22:29.083Z,102700.47
2022-10-03T11:25:43.926Z,102697.78
2022-10-03T11:29:02.417Z,102709.34
2022-10-03T11:32:20.715Z,102700.69
2022-10-03T11:35:45.387Z,102700.19
2022-10-03T11:38:24.635Z,102696.94
2022-10-03T11:41:06.752Z,102691.34
2022-10-03T11:44:07.281Z,102689.06
2022-10-03T11:46:58.075Z,102689.41
2022-10-03T11:49:50.315Z,102683.66
2022-10-03T11:52:31.765Z,102686.50
2022-10-03T11:55:20.428Z,102682.25
2022-10-03T11:58:04.789Z,102691.50
2022-10-03T12:00:42.385Z,102691.66
2022-10-03T12:03:22.348Z,102681.47
2022-10-03T12:06:13.616Z,102689.25
2022-10-03T12:08:59.922Z,102682.72
2022-10-03T12:11:39.644Z,102687.66
2022-10-03T12:14:27.811Z,102685.38
2022-10-03T12:17:09.603Z,102685.28
2022-10-03T12:19:54.393Z,102682.63
2022-10-03T12:22:42.985Z,102677.16
2022-10-03T12:25:23.904Z,102681.53
2022-10-03T12:28:06.251Z,102680.34
2022-10-03T12:30:49.637Z,102674.78
2022-10-03T12:33:48.190Z,102678.19
2022-10-03T12:36:30.821Z,102675.09
2022-10-03T12:39:22.064Z,102676.38
2022-10-03T12:42:09.805Z,102666.88
2022-10-03T12:44:52.647Z,102664.97
2022-10-03T12:47:54.236Z,102667.59
2022-10-03T12:50:41.057Z,102662.50
2022-10-03T12:53:26.643Z,102670.53
2022-10-03T12:56:07.810Z,102674.38
2022-10-03T12:58:52.084Z,102667.06
2022-10-03T13:01:47.256Z,102673.78
2022-10-03T13:04:32.639Z,102666.69
2022-10-03T13:07:20.630Z,102664.44
2022-10-03T13:10:17.155Z,102664.91
2022-10-03T13:12:55.073Z,102658.09
2022-10-03T13:15:45.267Z,102656.16
2022-10-03T13:18:37.577Z,102647.09
2022-10-03T13:21:43.993Z,102647.91
2022-10-03T13:24:26.675Z,102647.16
2022-10-03T13:27:10.708Z,102651.88
2022-10-03T13:29:47.174Z,102652.72
2022-10-03T13:32:29.440Z,102644.75
2022-10-03T13:35:31.789Z,102634.44
2022-10-03T13:38:26.450Z,102635.44
2022-10-03T13:41:10.165Z,102631.13
2022-10-03T13:43:48.810Z,102629.53
2022-10-03T13:46:31.341Z,102623.94
2022-10-03T13:49:14.404Z,102619.56
2022-10-03T13:51:54.094Z,102624.38
2022-10-03T13:54:49.902Z,102620.88
2022-10-03T13:57:28.519Z,102616.13
2022-10-03T14:00:10.660Z,102619.03
2022-10-03T14:03:01.084Z,102621.41
2022-10-03T14:05:46.615Z,102621.41
2022-10-03T14:08:40.190Z,102623.81
2022-10-03T14:11:23.699Z,102616.66
2022-10-03T14:14:17.362Z,102618.19
2022-10-03T14:16:58.335Z,102606.59
2022-10-03T14:19:40.669Z,102606.94
2022-10-03T14:22:31.824Z,102596.66
2022-10-03T14:25:19.317Z,102592.41
2022-10-03T14:27:55.156Z,102591.63
2022-10-03T14:30:37.008Z,102582.44
2022-10-03T14:33:22.329Z,102586.81
2022-10-03T14:36:06.243Z,102588.03
2022-10-03T14:39:10.986Z,102586.91
2022-10-03T14:42:02.598Z,102580.88
2022-10-03T14:44:40.180Z,102574.56
2022-10-03T14:47:16.980Z,102569.41
2022-10-03T14:49:58.887Z,102563.03
2022-10-03T14:52:41.296Z,102567.41
2022-10-03T14:55:18.745Z,102556.28
2022-10-03T14:58:11.914Z,102557.13
2022-10-03T15:00:48.107Z,102554.31
2022-10-03T15:03:25.737Z,102552.38
2022-10-03T15:06:23.478Z,102553.97
2022-10-03T15:09:02.346Z,102552.28
2022-10-03T15:11:36.940Z,102553.00
2022-10-03T15:14:11.453Z,102549.84
2022-10-03T15:16:50.452Z,102556.16
2022-10-03T15:19:31.062Z,102552.84
2022-10-03T15:22:13.235Z,102538.09
2022-10-03T15:24:47.772Z,102534.88
2022-10-03T15:27:23.169Z,102534.50
2022-10-03T15:29:59.573Z,102533.53
2022-10-03T15:32:37.338Z,102531.25
2022-10-03T15:35:18.581Z,102539.94
2022-10-03T15:37:52.692Z,102533.53
2022-10-03T15:40:33.544Z,102531.16
2022-10-03T15:43:12.949Z,102528.41
2022-10-03T15:45:45.891Z,102518.06
2022-10-03T15:48:21.893Z,102514.94
2022-10-03T15:50:58.665Z,102512.59
2022-10-03T15:53:37.266Z,102510.63
2022-10-03T15:56:17.690Z,102512.66
2022-10-03T15:58:55.093Z,102509.09
2022-10-03T16:01:33.162Z,102512.22
2022-10-03T16:04:08.685Z,102509.81
2022-10-03T16:06:49.434Z,102520.94
2022-10-03T16:09:28.942Z,102507.78
2022-10-03T16:12:18.295Z,102500.22
2022-10-03T16:14:57.536Z,102500.53
2022-10-03T16:17:35.973Z,102498.91
2022-10-03T16:20:19.274Z,102492.53
2022-10-03T16:22:54.297Z,102485.00
2022-10-03T16:25:30.073Z,102473.91
2022-10-03T16:28:07.800Z,102475.56
2022-10-03T16:30:46.596Z,102468.50
2022-10-03T16:33:23.741Z,102466.03
2022-10-03T16:35:59.424Z,102473.88
2022-10-03T16:38:37.438Z,102478.13
2022-10-03T16:41:17.961Z,102473.84
2022-10-03T16:43:56.933Z,102474.09
2022-10-03T16:46:34.330Z,102471.41
2022-10-03T16:49:36.487Z,102472.16
2022-10-03T16:52:13.399Z,102472.88
2022-10-03T16:54:48.308Z,102470.09
2022-10-03T16:57:27.188Z,102468.06
2022-10-03T17:00:08.063Z,102459.38
2022-10-03T17:02:41.333Z,102464.81
2022-10-03T17:05:15.984Z,102470.84
2022-10-03T17:07:52.098Z,102471.25
2022-10-03T17:10:37.383Z,102473.63
2022-10-03T17:13:16.407Z,102475.59
2022-10-03T17:15:53.413Z,102475.94
2022-10-03T17:18:29.347Z,102477.47
2022-10-03T17:21:10.297Z,102478.94
2022-10-03T17:23:50.205Z,102478.78
2022-10-03T17:26:30.880Z,102476.78
2022-10-03T17:29:11.100Z,102462.91
2022-10-03T17:31:47.944Z,102462.41
2022-10-03T17:34:24.858Z,102460.44
2022-10-03T17:37:13.279Z,102458.66
2022-10-03T17:39:55.899Z,102459.44
2022-10-03T17:42:40.781Z,102464.53
2022-10-03T17:45:26.692Z,102462.66
2022-10-03T17:48:07.130Z,102469.22
2022-10-03T17:50:53.735Z,102476.38
2022-10-03T17:53:29.855Z,102463.50
2022-10-03T17:56:12.090Z,102455.28
2022-10-03T17:58:50.712Z,102441.75
2022-10-03T18:01:30.183Z,102438.97
2022-10-03T18:04:05.532Z,102432.06
2022-10-03T18:06:47.608Z,102432.91
2022-10-03T18:09:38.832Z,102431.59
2022-10-03T18:12:23.449Z,102435.50
2022-10-03T18:15:25.451Z,102439.44
2022-10-03T18:18:13.737Z,102440.44
2022-10-03T18:20:49.975Z,102440.19
2022-10-03T18:23:53.050Z,102424.72
2022-10-03T18:26:28.773Z,102433.38
2022-10-03T18:29:14.252Z,102431.78
2022-10-03T18:31:56.027Z,102445.66
2022-10-03T18:34:35.123Z,102439.13
2022-10-03T18:37:38.300Z,102437.84
2022-10-03T18:40:19.442Z,102433.53
2022-10-03T18:42:53.584Z,102440.19
2022-10-03T18:45:32.197Z,102441.66
2022-10-03T18:48:12.500Z,102440.06
2022-10-03T18:50:57.704Z,102441.66
2022-10-03T18:53:36.434Z,102434.16
2022-10-03T18:56:12.340Z,102428.84
2022-10-03T18:58:49.367Z,102430.44
2022-10-03T19:01:30.635Z,102435.16
2022-10-03T19:04:10.069Z,102430.81
2022-10-03T19:06:47.532Z,102420.84
2022-10-03T19:09:25.562Z,102408.19
2022-10-03T19:12:10.731Z,102411.75
2022-10-03T19:15:02.236Z,102408.03
2022-10-03T19:17:40.917Z,102407.97
2022-10-03T19:20:24.294Z,102410.31
2022-10-03T19:23:04.616Z,102400.78
2022-10-03T19:25:39.966Z,102408.63
2022-10-03T19:28:20.920Z,102398.06
2022-10-03T19:31:00.109Z,102401.63
2022-10-03T19:33:39.406Z,102397.56
2022-10-03T19:36:18.387Z,102407.84
2022-10-03T19:38:54.235Z,102414.97
2022-10-03T19:41:35.211Z,102416.53
2022-10-03T19:44:10.040Z,102405.41
2022-10-03T19:47:06.562Z,102411.34
2022-10-03T19:50:04.090Z,102409.38
2022-10-03T19:52:41.659Z,102422.81
2022-10-03T19:55:18.449Z,102412.66
2022-10-03T19:57:54.939Z,102410.56
2022-10-03T20:00:31.012Z,102413.25
2022-10-03T20:03:14.227Z,102409.69
2022-10-03T20:05:51.900Z,102407.69
2022-10-03T20:08:34.240Z,102410.75
2022-10-03T20:11:45.848Z,102412.28
2022-10-03T20:14:23.678Z,102412.22
2022-10-03T20:17:01.049Z,102405.88
2022-10-03T20:19:47.952Z,102400.22
2022-10-03T20:22:22.845Z,102401.00
2022-10-03T20:24:57.054Z,102399.06
2022-10-03T20:27:37.865Z,102398.06
2022-10-03T20:30:24.805Z,102405.63
2022-10-03T20:33:00.623Z,102403.59
2022-10-03T20:35:48.490Z,102401.69
2022-10-03T20:38:31.775Z,102397.56
2022-10-03T20:41:10.956Z,102399.81
2022-10-03T20:43:47.137Z,102396.63
2022-10-03T20:46:23.822Z,102393.00
2022-10-03T20:49:14.262Z,102392.56
2022-10-03T20:51:58.037Z,102384.56
2022-10-03T20:54:36.464Z,102385.31
2022-10-03T20:57:19.726Z,102375.94
2022-10-03T20:59:53.549Z,102384.56
2022-10-03T21:02:30.735Z,102394.16
2022-10-03T21:05:07.979Z,102390.22
2022-10-03T21:07:45.509Z,102394.47
2022-10-03T21:10:26.140Z,102392.44
2022-10-03T21:13:02.615Z,102386.81
2022-10-03T21:15:42.144Z,102386.03
2022-10-03T21:18:21.563Z,102386.91
2022-10-03T21:21:04.374Z,102382.91
2022-10-03T21:23:53.397Z,102382.91
2022-10-03T21:26:30.216Z,102379.69
2022-10-03T21:29:27.837Z,102370.09
2022-10-03T21:32:29.188Z,102366.97
2022-10-03T21:35:12.308Z,102357.50
2022-10-03T21:37:51.820Z,102357.38
2022-10-03T21:40:43.628Z,102364.44
2022-10-03T21:43:30.888Z,102360.78
2022-10-03T21:46:15.494Z,102358.09
2022-10-03T21:49:00.536Z,102346.31
2022-10-03T21:51:41.466Z,102345.47
2022-10-03T21:54:31.621Z,102339.09
2022-10-03T21:57:13.239Z,102334.31
2022-10-03T22:00:11.887Z,102335.88
2022-10-03T22:03:06.808Z,102339.78
2022-10-03T22:05:46.622Z,102338.16
2022-10-03T22:08:24.075Z,102328.75
2022-10-03T22:11:09.665Z,102318.41
2022-10-03T22:13:49.045Z,102319.19
2022-10-03T22:16:37.467Z,102321.31
2022-10-03T22:19:21.463Z,102327.84
2022-10-03T22:22:07.035Z,102314.47
2022-10-03T22:24:52.727Z,102311.28
2022-10-03T22:27:32.165Z,102324.72
2022-10-03T22:30:07.413Z,102316.56
2022-10-03T22:32:50.922Z,102314.97
2022-10-03T22:35:50.470Z,102317.22
2022-10-03T22:38:27.320Z,102316.06
2022-10-03T22:41:04.079Z,102316.81
2022-10-03T22:43:38.326Z,102313.69
2022-10-03T22:46:14.514Z,102303.41
2022-10-03T22:48:50.763Z,102297.47
2022-10-03T22:51:26.897Z,102291.53
2022-10-03T22:54:13.404Z,102296.31
2022-10-03T22:56:49.140Z,102302.25
2022-10-03T22:59:27.062Z,102302.13
2022-10-03T23:02:03.361Z,102292.31
2022-10-03T23:04:39.520Z,102294.28
2022-10-03T23:07:29.453Z,102296.25
2022-10-03T23:10:14.928Z,102294.56
2022-10-03T23:12:51.740Z,102285.91
2022-10-03T23:15:27.147Z,102285.84
2022-10-03T23:18:33.920Z,102279.16
2022-10-03T23:21:08.508Z,102283.91
2022-10-03T23:23:54.878Z,102278.78
2022-10-03T23:27:15.337Z,102279.59
2022-10-03T23:30:29.675Z,102284.97
2022-10-03T23:33:02.996Z,102278.75
2022-10-03T23:35:41.532Z,102273.88
2022-10-03T23:38:51.976Z,102272.72
2022-10-03T23:41:43.997Z,102259.56
2022-10-03T23:44:35.908Z,102252.50
2022-10-03T23:47:15.079Z,102250.09
2022-10-03T23:49:51.078Z,102251.69
2022-10-03T23:52:28.366Z,102253.25
2022-10-03T23:55:06.687Z,102260.59
2022-10-03T23:57:43.566Z,102258.00
